Time;durP1;ratioP1;P1;durP2;ratioP2;P2;SDS_P1;SDS_P2;PMS_P1;PMS_P2;Temp;Humidity;BMP_temperature;BMP_pressure;BME280_temperature;BME280_humidity;BME280_pressure;Samples;Min_cycle;Max_cycle;Signal;HPM_P1;HPM_P2
2022/03/07 00:02:05;;;;;;;17.67;12.65;;;;;;;0.16;100.00;96725.50;5047862;28;20085;-60
2022/03/07 00:04:33;;;;;;;12.95;11.05;;;;;;;0.03;100.00;96726.19;5046535;28;20565;-59
2022/03/07 00:07:03;;;;;;;17.17;12.93;;;;;;;0.13;100.00;96727.41;5045925;28;20068;-59
2022/03/07 00:09:32;;;;;;;16.67;13.48;;;;;;;0.20;100.00;96719.25;5046026;28;20064;-59
2022/03/07 00:12:00;;;;;;;17.17;12.73;;;;;;;0.17;100.00;96726.34;5046151;28;20068;-58
2022/03/07 00:14:29;;;;;;;13.65;11.40;;;;;;;0.03;100.00;96721.81;5047051;28;20083;-56
2022/03/07 00:16:57;;;;;;;16.60;13.35;;;;;;;0.06;100.00;96718.25;5048231;28;20073;-55
2022/03/07 00:19:29;;;;;;;16.60;12.90;;;;;;;-0.03;100.00;96720.38;5045667;28;20513;-59
2022/03/07 00:21:57;;;;;;;15.77;12.15;;;;;;;0.06;100.00;96723.44;5046537;28;20108;-58
2022/03/07 00:24:27;;;;;;;19.48;13.88;;;;;;;0.16;100.00;96725.50;5044828;28;20461;-60
2022/03/07 00:26:55;;;;;;;16.40;13.65;;;;;;;0.09;100.00;96724.13;5045550;28;20069;-60
2022/03/07 00:29:23;;;;;;;18.77;13.32;;;;;;;0.01;100.00;96726.25;5046404;28;20474;-60
2022/03/07 00:31:52;;;;;;;19.67;15.00;;;;;;;0.03;100.00;96723.59;5044451;28;20072;-59
2022/03/07 00:34:20;;;;;;;20.27;15.77;;;;;;;0.00;100.00;96732.38;5043971;28;20052;-59
2022/03/07 00:36:48;;;;;;;20.00;14.00;;;;;;;0.03;100.00;96732.19;5046513;28;20072;-60
2022/03/07 00:39:17;;;;;;;19.95;14.85;;;;;;;0.14;100.00;96723.94;5042279;28;20068;-56
2022/03/07 00:41:46;;;;;;;19.55;14.55;;;;;;;-0.09;100.00;96735.38;5045346;28;20077;-59
2022/03/07 00:44:14;;;;;;;22.42;15.60;;;;;;;0.03;100.00;96731.34;5045992;28;20502;-60
2022/03/07 00:46:43;;;;;;;18.67;14.98;;;;;;;0.02;100.00;96729.69;5045004;28;20091;-59
2022/03/07 00:49:11;;;;;;;18.85;15.32;;;;;;;0.18;100.00;96731.47;5044740;28;20149;-60
2022/03/07 00:51:39;;;;;;;20.88;15.85;;;;;;;0.03;100.00;96727.00;5045085;28;20064;-57
2022/03/07 00:54:08;;;;;;;21.38;15.68;;;;;;;0.08;100.00;96714.69;5044720;28;20060;-60
2022/03/07 00:56:36;;;;;;;16.48;13.30;;;;;;;-0.05;100.00;96719.59;5048067;28;20061;-60
2022/03/07 00:59:05;;;;;;;18.55;13.65;;;;;;;-0.01;100.00;96717.72;5045965;28;20080;-59
2022/03/07 01:01:34;;;;;;;22.53;15.73;;;;;;;0.08;100.00;96721.63;5045682;28;20072;-58
2022/03/07 01:04:03;;;;;;;21.00;15.68;;;;;;;0.10;100.00;96715.44;5046043;28;20077;-59
2022/03/07 01:06:31;;;;;;;14.63;10.75;;;;;;;-0.15;100.00;96712.34;5044707;28;20065;-60
2022/03/07 01:09:00;;;;;;;20.80;14.15;;;;;;;-0.04;100.00;96718.69;5043512;28;20065;-58
2022/03/07 01:11:28;;;;;;;15.80;11.30;;;;;;;0.01;100.00;96722.84;5046347;28;20068;-60
2022/03/07 01:13:56;;;;;;;24.83;14.60;;;;;;;-0.04;100.00;96720.44;5043441;28;20091;-60
2022/03/07 01:16:26;;;;;;;20.65;14.75;;;;;;;-0.04;100.00;96726.47;5046716;28;20067;-59
2022/03/07 01:18:54;;;;;;;21.10;15.02;;;;;;;-0.12;100.00;96727.75;5044940;28;20060;-58
2022/03/07 01:21:22;;;;;;;20.85;14.68;;;;;;;-0.25;100.00;96722.31;5045519;28;20047;-59
2022/03/07 01:23:51;;;;;;;23.42;15.25;;;;;;;-0.32;100.00;96721.75;5046259;28;20068;-61
2022/03/07 01:26:20;;;;;;;19.63;15.23;;;;;;;-0.29;100.00;96726.78;5043834;28;21726;-58
2022/03/07 01:28:49;;;;;;;15.65;11.65;;;;;;;-0.45;100.00;96728.41;5043247;28;20099;-59
2022/03/07 01:31:17;;;;;;;15.77;12.38;;;;;;;-0.43;100.00;96725.75;5044113;28;20111;-59
2022/03/07 01:33:46;;;;;;;19.75;14.57;;;;;;;-0.36;100.00;96722.81;5043575;28;20478;-59
2022/03/07 01:36:15;;;;;;;14.57;11.97;;;;;;;-0.49;100.00;96714.75;5043829;28;20076;-59
2022/03/07 01:38:44;;;;;;;15.95;13.02;;;;;;;-0.51;100.00;96714.00;5043857;28;20091;-58
2022/03/07 01:41:13;;;;;;;16.38;12.25;;;;;;;-0.46;100.00;96705.19;5044284;28;20076;-59
2022/03/07 01:43:41;;;;;;;17.30;12.95;;;;;;;-0.44;100.00;96721.50;5046243;28;20087;-59
2022/03/07 01:46:09;;;;;;;11.00;9.88;;;;;;;-0.50;100.00;96709.66;5044555;28;20088;-60
2022/03/07 01:48:38;;;;;;;16.45;10.65;;;;;;;-0.58;100.00;96707.44;5043904;28;20073;-61
2022/03/07 01:51:10;;;;;;;17.08;10.75;;;;;;;-0.52;100.00;96709.75;5045093;28;20069;-60
2022/03/07 01:53:39;;;;;;;15.88;11.65;;;;;;;-0.47;100.00;96699.16;5043267;28;20523;-60
2022/03/07 01:56:08;;;;;;;16.67;11.80;;;;;;;-0.45;100.00;96707.69;5044905;28;20088;-60
2022/03/07 01:58:37;;;;;;;15.80;11.07;;;;;;;-0.54;100.00;96703.78;5044765;28;20084;-60
2022/03/07 02:01:05;;;;;;;11.77;10.40;;;;;;;-0.61;100.00;96699.78;5046512;28;20092;-57
2022/03/07 02:03:33;;;;;;;13.57;11.30;;;;;;;-0.66;100.00;96706.09;5045843;28;20385;-57
2022/03/07 02:06:02;;;;;;;13.25;11.18;;;;;;;-0.55;100.00;96702.09;5050370;28;20072;-59
2022/03/07 02:08:34;;;;;;;;;;;;;;;-0.38;100.00;96698.75;5048183;28;20064;-60
2022/03/07 02:11:02;;;;;;;11.05;9.32;;;;;;;-0.45;100.00;96707.69;5049234;28;19956;-56
2022/03/07 02:13:31;;;;;;;15.18;10.57;;;;;;;-0.55;100.00;96704.69;5049810;28;20095;-59
2022/03/07 02:15:59;;;;;;;12.98;9.77;;;;;;;-0.51;100.00;96706.22;5047383;28;20060;-58
2022/03/07 02:18:29;;;;;;;12.77;10.13;;;;;;;-0.57;100.00;96697.91;5049570;28;20507;-59
2022/03/07 02:21:03;;;;;;;14.77;9.93;;;;;;;-0.62;100.00;96703.31;5046920;28;20064;-61
2022/03/07 02:23:32;;;;;;;12.30;11.00;;;;;;;-0.60;100.00;96703.22;5048238;28;20634;-58
2022/03/07 02:26:01;;;;;;;13.05;10.55;;;;;;;-0.52;100.00;96704.56;5050210;28;20087;-57
2022/03/07 02:28:29;;;;;;;13.07;10.55;;;;;;;-0.57;100.00;96703.09;5048393;28;20530;-59
2022/03/07 02:30:57;;;;;;;14.25;10.13;;;;;;;-0.60;100.00;96711.00;5048259;28;20076;-60
2022/03/07 02:33:26;;;;;;;11.07;9.30;;;;;;;-0.55;100.00;96707.28;5049173;28;20072;-59
2022/03/07 02:35:56;;;;;;;12.73;10.40;;;;;;;-0.56;100.00;96710.78;5048776;28;20069;-60
2022/03/07 02:38:24;;;;;;;13.00;10.30;;;;;;;-0.57;100.00;96706.50;5049454;28;20065;-60
2022/03/07 02:40:54;;;;;;;8.32;7.15;;;;;;;-0.82;100.00;96704.22;5048462;28;20076;-60
2022/03/07 02:43:22;;;;;;;11.27;10.03;;;;;;;-0.46;100.00;96700.81;5049658;28;20084;-59
2022/03/07 02:45:51;;;;;;;14.13;9.85;;;;;;;-0.72;100.00;96702.03;5051051;28;20501;-60
2022/03/07 02:48:20;;;;;;;11.75;9.60;;;;;;;-0.62;100.00;96699.84;5047314;28;20048;-56
2022/03/07 02:50:48;;;;;;;13.93;10.90;;;;;;;-0.56;100.00;96708.19;5046954;28;20616;-60
2022/03/07 02:53:16;;;;;;;12.75;9.75;;;;;;;-0.54;100.00;96705.53;5048743;28;20091;-61
2022/03/07 02:55:46;;;;;;;8.68;7.88;;;;;;;-0.70;100.00;96697.63;5048802;28;20114;-60
2022/03/07 02:58:15;;;;;;;14.23;10.20;;;;;;;-0.47;100.00;96699.16;5048144;28;20064;-60
2022/03/07 03:00:43;;;;;;;12.45;9.45;;;;;;;-0.58;100.00;96704.00;5047420;28;20072;-57
2022/03/07 03:03:12;;;;;;;14.85;10.68;;;;;;;-0.63;100.00;96706.78;5046549;28;20064;-60
2022/03/07 03:05:40;;;;;;;16.45;11.07;;;;;;;-0.56;100.00;96708.19;5048169;28;20060;-60
2022/03/07 03:08:08;;;;;;;13.20;10.35;;;;;;;-0.54;100.00;96708.97;5047829;28;20770;-60
2022/03/07 03:10:37;;;;;;;13.23;10.85;;;;;;;-0.39;100.00;96710.00;5046063;28;20323;-59
2022/03/07 03:13:05;;;;;;;12.63;10.55;;;;;;;-0.57;100.00;96710.84;5048140;28;20057;-58
2022/03/07 03:15:35;;;;;;;11.88;8.57;;;;;;;-0.54;100.00;96711.56;5047587;28;20079;-56
2022/03/07 03:18:03;;;;;;;13.53;9.60;;;;;;;-0.53;100.00;96715.81;5047949;28;20523;-59
2022/03/07 03:20:32;;;;;;;12.55;10.10;;;;;;;-0.68;100.00;96713.09;5048065;28;20041;-60
2022/03/07 03:23:00;;;;;;;14.38;10.55;;;;;;;-0.60;100.00;96711.00;5047711;28;20455;-59
2022/03/07 03:25:28;;;;;;;13.20;9.50;;;;;;;-0.60;100.00;96711.00;5046434;28;20210;-60
2022/03/07 03:27:57;;;;;;;18.25;11.07;;;;;;;-0.77;100.00;96711.75;5048583;28;20079;-58
2022/03/07 03:30:25;;;;;;;14.15;11.70;;;;;;;-0.69;100.00;96701.88;5047127;28;20068;-60
2022/03/07 03:32:58;;;;;;;14.77;11.40;;;;;;;-0.62;100.00;96707.63;5047740;28;20076;-58
2022/03/07 03:35:27;;;;;;;13.17;10.90;;;;;;;-0.66;100.00;96706.91;5046318;28;20077;-57
2022/03/07 03:37:58;;;;;;;15.13;11.38;;;;;;;-0.58;100.00;96709.19;5044898;28;20085;-60
2022/03/07 03:40:26;;;;;;;13.85;11.02;;;;;;;-0.59;100.00;96703.13;5046384;28;20336;-57
2022/03/07 03:42:55;;;;;;;12.65;10.30;;;;;;;-0.51;100.00;96711.41;5044526;28;20056;-58
2022/03/07 03:45:23;;;;;;;14.10;10.05;;;;;;;-0.58;100.00;96711.78;5045497;28;20087;-55
2022/03/07 03:47:52;;;;;;;15.70;11.00;;;;;;;-0.50;100.00;96709.66;5044472;28;20065;-60
2022/03/07 03:50:21;;;;;;;15.57;11.02;;;;;;;-0.61;100.00;96704.16;5043747;28;20576;-60
2022/03/07 03:52:50;;;;;;;14.05;11.13;;;;;;;-0.48;100.00;96713.03;5026427;28;20435;-60
2022/03/07 03:55:18;;;;;;;15.32;11.70;;;;;;;-0.35;100.00;96719.28;5028514;28;20076;-60
2022/03/07 03:57:47;;;;;;;15.50;11.18;;;;;;;-0.47;100.00;96714.69;5025755;28;20045;-59
2022/03/07 04:00:17;;;;;;;14.73;10.73;;;;;;;-0.30;100.00;96716.50;5037321;28;20064;-60
2022/03/07 04:02:46;;;;;;;13.60;10.73;;;;;;;-0.53;100.00;96722.75;5045179;28;20065;-59
2022/03/07 04:05:15;;;;;;;13.50;11.43;;;;;;;-0.40;100.00;96717.84;5045152;28;20148;-58
2022/03/07 04:07:45;;;;;;;14.18;11.43;;;;;;;-0.39;100.00;96722.94;5041076;28;20405;-58
2022/03/07 04:10:14;;;;;;;15.68;11.73;;;;;;;-0.40;100.00;96718.69;5044119;28;20065;-62
2022/03/07 04:12:43;;;;;;;14.10;11.18;;;;;;;-0.47;100.00;96719.88;5044937;28;20080;-61
2022/03/07 04:15:12;;;;;;;14.68;11.48;;;;;;;-0.52;100.00;96720.09;5036867;28;20061;-58
2022/03/07 04:17:41;;;;;;;13.13;11.65;;;;;;;-0.59;100.00;96723.84;5027430;28;20069;-58
2022/03/07 04:20:10;;;;;;;14.90;11.18;;;;;;;-0.65;100.00;96721.56;5034682;28;20072;-56
2022/03/07 04:22:39;;;;;;;15.02;11.43;;;;;;;-0.55;100.00;96715.06;5046290;28;20080;-61
2022/03/07 04:25:09;;;;;;;15.48;11.55;;;;;;;-0.50;100.00;96720.03;5043821;28;20647;-60
2022/03/07 04:27:38;;;;;;;13.77;11.55;;;;;;;-0.46;100.00;96726.72;5046622;28;20072;-59
2022/03/07 04:30:08;;;;;;;15.82;12.00;;;;;;;-0.38;100.00;96726.38;5045716;28;20119;-60
2022/03/07 04:32:38;;;;;;;14.15;11.32;;;;;;;-0.37;100.00;96726.31;5044344;28;20087;-58
2022/03/07 04:35:07;;;;;;;13.53;11.23;;;;;;;-0.43;100.00;96725.75;5045331;28;20557;-59
2022/03/07 04:37:38;;;;;;;14.50;10.80;;;;;;;-0.56;100.00;96721.13;5046118;28;20080;-61
2022/03/07 04:40:09;;;;;;;16.83;12.10;;;;;;;-0.67;100.00;96719.94;5046914;28;20065;-54
2022/03/07 04:42:37;;;;;;;16.60;11.20;;;;;;;-0.44;100.00;96729.28;5045509;28;20061;-59
2022/03/07 04:45:06;;;;;;;13.88;11.13;;;;;;;-0.54;100.00;96731.44;5045711;28;20068;-61
2022/03/07 04:47:35;;;;;;;14.13;10.63;;;;;;;-0.37;100.00;96731.50;5045095;28;20064;-56
2022/03/07 04:50:03;;;;;;;14.40;11.63;;;;;;;-0.52;100.00;96730.47;5044974;28;20496;-58
2022/03/07 04:52:32;;;;;;;15.55;11.52;;;;;;;-0.63;100.00;96721.50;5045241;28;20460;-58
2022/03/07 04:55:00;;;;;;;15.32;10.93;;;;;;;-0.61;100.00;96728.28;5045292;28;20065;-60
2022/03/07 04:57:29;;;;;;;13.40;9.32;;;;;;;-0.82;100.00;96718.91;5046333;28;20072;-62
2022/03/07 04:59:58;;;;;;;17.45;12.25;;;;;;;-0.67;100.00;96731.16;5046748;28;20069;-57
2022/03/07 05:02:26;;;;;;;18.17;12.00;;;;;;;-0.67;100.00;96732.91;5044391;28;20452;-59
2022/03/07 05:04:54;;;;;;;20.50;13.27;;;;;;;-0.63;100.00;96731.84;5046435;28;20085;-59
2022/03/07 05:07:24;;;;;;;18.42;12.50;;;;;;;-0.75;100.00;96726.31;5045776;28;20061;-59
2022/03/07 05:09:52;;;;;;;13.88;11.48;;;;;;;-0.77;100.00;96737.66;5044053;28;20064;-58
2022/03/07 05:12:20;;;;;;;15.30;11.50;;;;;;;-0.76;100.00;96740.19;5047079;28;20689;-59
2022/03/07 05:14:50;;;;;;;14.23;10.13;;;;;;;-0.86;100.00;96748.41;5043696;28;20068;-59
2022/03/07 05:17:18;;;;;;;16.37;12.17;;;;;;;-0.77;100.00;96737.66;5043674;28;20095;-59
2022/03/07 05:19:47;;;;;;;17.20;13.75;;;;;;;-0.78;100.00;96735.97;5045394;28;20088;-58
2022/03/07 05:22:15;;;;;;;15.75;12.50;;;;;;;-0.78;100.00;96738.56;5044018;28;20069;-56
2022/03/07 05:24:43;;;;;;;17.10;13.40;;;;;;;-0.90;100.00;96733.91;5044642;28;20083;-58
2022/03/07 05:27:12;;;;;;;18.52;12.63;;;;;;;-0.93;100.00;96732.28;5042888;28;20064;-58
2022/03/07 05:29:40;;;;;;;15.75;12.45;;;;;;;-1.03;100.00;96737.06;5044359;28;20183;-60
2022/03/07 05:32:10;;;;;;;14.27;11.18;;;;;;;-0.84;100.00;96737.06;5046307;28;20760;-60
2022/03/07 05:34:38;;;;;;;17.10;12.82;;;;;;;-0.90;100.00;96744.28;5044343;28;20053;-59
2022/03/07 05:37:07;;;;;;;17.33;13.88;;;;;;;-0.79;100.00;96737.72;5046042;28;20061;-62
2022/03/07 05:39:35;;;;;;;19.35;13.63;;;;;;;-0.76;100.00;96740.19;5044864;28;20527;-61
2022/03/07 05:42:04;;;;;;;18.02;13.82;;;;;;;-0.97;100.00;96744.53;5044486;28;20068;-63
2022/03/07 05:44:33;;;;;;;17.42;13.07;;;;;;;-0.74;100.00;96743.53;5044653;28;20068;-57
2022/03/07 05:47:01;;;;;;;16.30;12.18;;;;;;;-0.84;100.00;96747.44;5044074;28;20083;-57
2022/03/07 05:49:31;;;;;;;19.42;13.25;;;;;;;-0.76;100.00;96742.78;5044110;28;20084;-61
2022/03/07 05:51:59;;;;;;;19.42;13.90;;;;;;;-0.66;100.00;96734.56;5044072;28;20068;-60
2022/03/07 05:54:27;;;;;;;17.65;13.23;;;;;;;-0.73;100.00;96742.59;5043485;28;20049;-62
2022/03/07 05:56:56;;;;;;;19.30;12.68;;;;;;;-0.77;100.00;96742.81;5046307;28;20594;-56
2022/03/07 05:59:24;;;;;;;17.20;12.60;;;;;;;-0.84;100.00;96747.44;5045786;28;20556;-61
2022/03/07 06:01:53;;;;;;;14.82;11.18;;;;;;;-0.82;100.00;96747.38;5046154;28;20087;-54
2022/03/07 06:04:21;;;;;;;11.02;8.73;;;;;;;-0.92;100.00;96741.75;5047675;28;20071;-54
2022/03/07 06:06:51;;;;;;;20.83;13.68;;;;;;;-0.71;100.00;96739.97;5043662;28;20060;-57
2022/03/07 06:09:19;;;;;;;18.13;14.27;;;;;;;-0.74;100.00;96750.47;5046638;28;20060;-60
2022/03/07 06:11:47;;;;;;;12.07;10.15;;;;;;;-0.87;100.00;96755.34;5046287;28;20068;-57
2022/03/07 06:14:16;;;;;;;15.27;12.00;;;;;;;-0.93;100.00;96754.75;5045536;28;20099;-48
2022/03/07 06:16:45;;;;;;;19.92;13.88;;;;;;;-0.81;100.00;96756.81;5047318;28;20076;-59
2022/03/07 06:19:13;;;;;;;20.67;14.80;;;;;;;-0.79;100.00;96755.84;5044171;28;20403;-61
2022/03/07 06:21:41;;;;;;;15.32;10.90;;;;;;;-0.84;100.00;96755.19;5044414;28;20112;-60
2022/03/07 06:24:11;;;;;;;19.08;13.15;;;;;;;-0.66;100.00;96763.06;5047357;28;20073;-60
2022/03/07 06:26:39;;;;;;;19.98;13.82;;;;;;;-0.64;100.00;96766.44;5044696;28;20057;-58
2022/03/07 06:29:08;;;;;;;17.08;11.77;;;;;;;-0.70;100.00;96758.94;5048005;28;20080;-58
2022/03/07 06:31:36;;;;;;;21.83;13.00;;;;;;;-0.66;100.00;96758.72;5047532;28;20080;-59
2022/03/07 06:34:05;;;;;;;18.80;13.50;;;;;;;-0.62;100.00;96773.22;5046018;28;20068;-57
2022/03/07 06:36:34;;;;;;;18.15;13.68;;;;;;;-0.64;100.00;96771.59;5045454;28;20071;-59
2022/03/07 06:39:02;;;;;;;17.55;14.32;;;;;;;-0.83;100.00;96782.75;5044285;28;20068;-58
2022/03/07 06:41:32;;;;;;;22.15;16.33;;;;;;;-0.83;100.00;96777.59;5043982;28;20161;-59
2022/03/07 06:44:00;;;;;;;20.53;15.47;;;;;;;-0.66;100.00;96776.84;5047091;28;20069;-55
2022/03/07 06:46:29;;;;;;;18.70;15.02;;;;;;;-0.65;100.00;96788.06;5050313;28;21413;-61
2022/03/07 06:48:58;;;;;;;19.75;14.02;;;;;;;-0.60;100.00;96775.75;5049493;28;20068;-60
2022/03/07 06:51:26;;;;;;;20.35;14.32;;;;;;;-0.54;100.00;96788.41;5048465;28;20057;-59
2022/03/07 06:53:54;;;;;;;20.50;14.70;;;;;;;-0.72;100.00;96779.72;5049979;28;20079;-61
2022/03/07 06:56:22;;;;;;;22.50;15.02;;;;;;;-0.60;100.00;96780.91;5049301;28;20545;-57
2022/03/07 06:58:52;;;;;;;21.63;15.55;;;;;;;-0.62;100.00;96772.38;5047537;28;20076;-57
2022/03/07 07:01:20;;;;;;;21.17;15.00;;;;;;;-0.59;100.00;96782.59;5051009;28;20069;-57
2022/03/07 07:03:49;;;;;;;21.30;14.57;;;;;;;-0.52;100.00;96779.69;5048659;28;20071;-57
2022/03/07 07:06:17;;;;;;;20.98;14.85;;;;;;;-0.42;100.00;96782.66;5047406;28;20451;-53
2022/03/07 07:08:45;;;;;;;19.60;13.27;;;;;;;-0.52;100.00;96766.72;5049570;28;20064;-57
2022/03/07 07:11:13;;;;;;;13.88;11.23;;;;;;;-0.40;100.00;96770.50;5044885;28;20103;-58
2022/03/07 07:13:42;;;;;;;19.55;15.93;;;;;;;-0.40;100.00;96773.09;5049037;28;20084;-60
2022/03/07 07:16:11;;;;;;;16.42;11.63;;;;;;;-0.42;100.00;96767.13;5047852;28;20065;-63
2022/03/07 07:18:40;;;;;;;20.77;15.27;;;;;;;-0.45;100.00;96771.59;5046906;28;20072;-59
2022/03/07 07:21:08;;;;;;;19.67;12.32;;;;;;;-0.29;100.00;96775.19;5047773;28;20483;-60
2022/03/07 07:23:37;;;;;;;24.08;16.67;;;;;;;-0.20;100.00;96774.78;5048651;28;20079;-59
2022/03/07 07:26:05;;;;;;;23.70;16.35;;;;;;;-0.05;100.00;96783.56;5048734;28;20085;-57
2022/03/07 07:28:34;;;;;;;19.83;13.68;;;;;;;0.09;100.00;96781.16;5050082;28;20085;-61
2022/03/07 07:31:02;;;;;;;20.50;15.00;;;;;;;-0.03;100.00;96792.13;5047997;28;20065;-59
2022/03/07 07:33:32;;;;;;;23.52;14.90;;;;;;;0.22;100.00;96790.06;5048948;28;20064;-57
2022/03/07 07:36:00;;;;;;;24.23;16.97;;;;;;;0.23;100.00;96803.84;5047044;28;20064;-58
2022/03/07 07:38:29;;;;;;;18.77;13.15;;;;;;;-0.03;100.00;96795.56;5048136;28;20486;-60
2022/03/07 07:40:57;;;;;;;20.70;14.55;;;;;;;0.03;100.00;96796.19;5048948;28;20092;-58
2022/03/07 07:43:25;;;;;;;22.88;15.02;;;;;;;0.05;100.00;96802.97;5046335;28;20480;-57
2022/03/07 07:45:53;;;;;;;21.58;15.82;;;;;;;0.37;100.00;96814.41;5049715;28;20084;-61
2022/03/07 07:48:22;;;;;;;24.08;17.05;;;;;;;0.59;100.00;96811.63;5046563;28;20060;-49
2022/03/07 07:50:51;;;;;;;23.60;14.98;;;;;;;0.27;100.00;96825.28;5045331;28;20073;-59
2022/03/07 07:53:19;;;;;;;26.65;19.00;;;;;;;0.10;100.00;96823.50;5048098;28;20080;-59
2022/03/07 07:55:48;;;;;;;19.73;13.88;;;;;;;0.37;100.00;96827.38;5046496;28;20596;-56
2022/03/07 07:58:16;;;;;;;24.70;16.45;;;;;;;0.66;100.00;96818.19;5049291;28;20466;-60
2022/03/07 08:00:44;;;;;;;24.27;16.80;;;;;;;0.40;100.00;96829.00;5047785;28;20073;-61
2022/03/07 08:03:13;;;;;;;22.42;16.77;;;;;;;0.51;100.00;96837.09;5047190;28;20080;-59
2022/03/07 08:05:45;;;;;;;26.23;17.40;;;;;;;0.51;100.00;96833.66;5049593;28;20045;-60
2022/03/07 08:08:15;;;;;;;25.73;17.58;;;;;;;0.67;100.00;96837.19;5047856;28;20084;-59
2022/03/07 08:10:43;;;;;;;20.67;14.40;;;;;;;0.45;100.00;96847.78;5048230;28;20085;-60
2022/03/07 08:13:11;;;;;;;24.73;17.05;;;;;;;0.36;100.00;96848.22;5050240;28;20065;-59
2022/03/07 08:15:40;;;;;;;21.90;14.75;;;;;;;0.61;100.00;96848.72;5046777;28;20060;-61
2022/03/07 08:18:09;;;;;;;23.80;17.15;;;;;;;0.62;100.00;96845.22;5048982;28;20072;-62
2022/03/07 08:20:37;;;;;;;21.50;14.50;;;;;;;0.72;100.00;96843.00;5046958;28;20148;-55
2022/03/07 08:23:05;;;;;;;19.58;13.93;;;;;;;0.59;100.00;96854.91;5047794;28;20080;-55
2022/03/07 08:25:35;;;;;;;20.92;13.48;;;;;;;0.63;100.00;96861.63;5048969;28;20470;-59
2022/03/07 08:28:04;;;;;;;23.70;15.48;;;;;;;0.49;100.00;96866.66;5046016;28;20475;-61
2022/03/07 08:30:34;;;;;;;24.50;17.15;;;;;;;0.69;100.00;96863.94;5047357;28;20456;-56
2022/03/07 08:33:02;;;;;;;26.13;18.13;;;;;;;0.97;100.00;96858.22;5041949;28;20068;-56
2022/03/07 08:35:31;;;;;;;24.15;17.23;;;;;;;0.92;100.00;96855.84;5046630;28;20113;-53
2022/03/07 08:37:59;;;;;;;26.58;18.50;;;;;;;0.98;100.00;96854.72;5050193;28;20083;-58
2022/03/07 08:40:27;;;;;;;22.30;17.80;;;;;;;0.88;100.00;96869.91;5045559;28;20345;-53
2022/03/07 08:42:57;;;;;;;22.85;14.27;;;;;;;1.03;100.00;96862.25;5047207;28;20069;-58
2022/03/07 08:45:26;;;;;;;26.08;17.10;;;;;;;1.32;100.00;96853.00;5047540;28;20069;-57
2022/03/07 08:48:14;;;;;;;24.73;14.13;;;;;;;0.95;100.00;96866.06;5043519;28;20095;-62
2022/03/07 08:50:42;;;;;;;25.20;17.27;;;;;;;1.65;100.00;96864.28;5047528;28;20056;-60
2022/03/07 08:53:11;;;;;;;27.48;18.85;;;;;;;1.24;100.00;96873.31;5046342;28;20087;-60
2022/03/07 08:55:39;;;;;;;21.15;15.45;;;;;;;1.35;100.00;96868.44;5048275;28;20081;-62
2022/03/07 08:58:15;;;;;;;26.38;18.77;;;;;;;1.29;100.00;96872.19;5046937;28;20096;-60
2022/03/07 09:00:43;;;;;;;19.80;14.13;;;;;;;1.19;100.00;96873.56;5045415;28;20133;-61
2022/03/07 09:03:11;;;;;;;26.00;19.17;;;;;;;1.40;100.00;96867.28;5046735;28;20060;-60
2022/03/07 09:05:40;;;;;;;23.13;16.85;;;;;;;1.41;100.00;96865.53;5048087;28;20056;-62
2022/03/07 09:08:08;;;;;;;19.08;14.10;;;;;;;1.42;100.00;96875.00;5045023;28;20084;-61
2022/03/07 09:10:36;;;;;;;20.70;13.98;;;;;;;1.71;100.00;96872.66;5050410;28;20455;-58
2022/03/07 09:13:05;;;;;;;23.35;17.45;;;;;;;1.53;100.00;96877.91;5045627;28;20071;-59
2022/03/07 09:15:34;;;;;;;23.77;16.85;;;;;;;1.46;100.00;96879.13;5045565;28;20071;-58
2022/03/07 09:18:03;;;;;;;25.73;17.90;;;;;;;2.23;100.00;96872.47;5048087;28;20064;-59
2022/03/07 09:20:31;;;;;;;27.00;18.10;;;;;;;1.98;100.00;96878.16;5045350;28;20064;-58
2022/03/07 09:23:00;;;;;;;24.70;17.45;;;;;;;1.80;100.00;96888.63;5046983;28;20547;-59
2022/03/07 09:25:28;;;;;;;28.35;19.02;;;;;;;1.95;100.00;96886.97;5025708;28;20577;-59
2022/03/07 09:27:56;;;;;;;18.88;15.07;;;;;;;1.95;100.00;96883.53;5042040;28;20060;-61
2022/03/07 09:30:24;;;;;;;24.45;18.33;;;;;;;1.82;100.00;96891.97;5047536;28;20071;-61
2022/03/07 09:32:56;;;;;;;30.35;18.15;;;;;;;1.86;100.00;96900.47;5045288;28;20129;-60
2022/03/07 09:35:24;;;;;;;27.85;19.02;;;;;;;2.08;100.00;96903.63;5045709;28;20512;-61
2022/03/07 09:37:52;;;;;;;22.77;16.45;;;;;;;1.67;100.00;96900.59;5047783;28;20081;-60
2022/03/07 09:40:21;;;;;;;23.02;14.68;;;;;;;1.69;100.00;96908.28;5047292;28;20052;-61
2022/03/07 09:42:49;;;;;;;27.38;19.60;;;;;;;1.75;100.00;96907.97;5047143;28;20538;-59
2022/03/07 09:45:17;;;;;;;24.00;18.48;;;;;;;1.63;100.00;96912.91;5046067;28;20065;-57
2022/03/07 09:47:48;;;;;;;25.02;16.83;;;;;;;1.68;100.00;96917.84;5045785;28;20603;-56
2022/03/07 09:50:18;;;;;;;;;;;;;;;1.85;100.00;96916.97;5047376;28;20057;-61
2022/03/07 09:52:46;;;;;;;27.75;20.05;;;;;;;2.22;100.00;96920.25;5043389;28;20559;-61
2022/03/07 09:55:17;;;;;;;22.80;15.32;;;;;;;1.98;100.00;96920.63;5047342;28;20079;-60
2022/03/07 09:57:45;;;;;;;;;;;;;;;2.01;100.00;96924.84;5048062;28;20064;-58
2022/03/07 10:00:15;;;;;;;27.55;18.50;;;;;;;2.24;100.00;96921.84;5044695;28;20390;-58
2022/03/07 10:02:53;;;;;;;28.60;21.10;;;;;;;2.39;100.00;96920.19;5051189;28;20502;-56
2022/03/07 10:05:26;;;;;;;28.52;21.85;;;;;;;1.96;100.00;96919.00;5039568;28;20077;-59
2022/03/07 10:07:55;;;;;;;26.50;20.48;;;;;;;2.13;100.00;96937.19;5046374;28;20463;-61
2022/03/07 10:10:28;;;;;;;27.15;18.38;;;;;;;2.06;100.00;96930.63;5051963;28;20484;-62
2022/03/07 10:12:57;;;;;;;26.85;20.23;;;;;;;2.32;100.00;96932.69;5042367;28;20099;-60
2022/03/07 10:15:25;;;;;;;27.88;21.05;;;;;;;2.41;100.00;96923.56;5045285;28;20068;-59
2022/03/07 10:17:54;;;;;;;27.85;18.45;;;;;;;2.37;100.00;96929.81;5045678;28;20482;-61
2022/03/07 10:20:25;;;;;;;24.13;16.75;;;;;;;2.19;100.00;96936.03;5046420;28;20081;-60
2022/03/07 10:22:53;;;;;;;;;;;;;;;2.34;100.00;96943.00;5048584;28;20076;-61
2022/03/07 10:25:23;;;;;;;25.40;19.77;;;;;;;2.29;100.00;96937.22;5048921;28;19959;-59
2022/03/07 10:27:52;;;;;;;21.90;16.00;;;;;;;2.34;100.00;96937.78;5047890;28;20452;-59
2022/03/07 10:30:21;;;;;;;24.55;18.02;;;;;;;2.39;100.00;96946.22;5050683;28;20468;-58
2022/03/07 10:32:55;;;;;;;26.58;19.27;;;;;;;2.29;100.00;96937.22;5047738;28;20542;-61
2022/03/07 10:35:27;;;;;;;30.42;18.52;;;;;;;2.67;100.00;96942.09;5048598;28;20047;-58
2022/03/07 10:37:57;;;;;;;25.73;17.90;;;;;;;2.74;100.00;96938.25;5049747;28;20601;-63
2022/03/07 10:40:26;;;;;;;26.30;17.92;;;;;;;2.43;100.00;96939.06;5053956;28;20061;-60
2022/03/07 10:42:55;;;;;;;29.70;20.45;;;;;;;2.70;100.00;96931.53;5050800;28;20071;-61
2022/03/07 10:45:24;;;;;;;23.02;16.00;;;;;;;2.76;100.00;96926.81;5049886;28;20065;-55
2022/03/07 10:47:53;;;;;;;27.75;20.98;;;;;;;2.55;100.00;96928.84;5049640;28;20065;-58
2022/03/07 10:50:23;;;;;;;26.65;20.30;;;;;;;2.52;100.00;96926.41;5050221;28;20080;-55
2022/03/07 10:52:53;;;;;;;27.90;20.23;;;;;;;2.61;100.00;96925.91;5045368;28;20467;-59
2022/03/07 10:55:27;;;;;;;28.63;21.58;;;;;;;2.71;100.00;96931.44;5048862;28;20065;-60
2022/03/07 10:58:05;;;;;;;26.67;21.10;;;;;;;2.49;100.00;96934.38;5049804;28;20444;-57
2022/03/07 11:00:34;;;;;;;27.02;20.10;;;;;;;2.67;100.00;96937.72;5048846;28;20454;-55
2022/03/07 11:03:02;;;;;;;28.13;22.45;;;;;;;2.64;100.00;96931.84;5050216;28;20061;-58
2022/03/07 11:05:31;;;;;;;25.45;18.55;;;;;;;2.29;100.00;96943.25;5046446;28;20072;-58
2022/03/07 11:08:01;;;;;;;25.80;18.98;;;;;;;2.10;100.00;96940.81;5049454;28;20125;-55
2022/03/07 11:10:29;;;;;;;28.77;21.10;;;;;;;2.37;100.00;96937.63;5049540;28;20293;-59
2022/03/07 11:12:57;;;;;;;30.23;22.98;;;;;;;2.07;100.00;96933.16;5047420;28;20080;-59
2022/03/07 11:15:27;;;;;;;30.17;21.15;;;;;;;2.37;100.00;96935.03;5050201;28;20068;-55
2022/03/07 11:17:55;;;;;;;29.98;21.23;;;;;;;2.75;100.00;96930.38;5047629;28;20064;-53
2022/03/07 11:20:26;;;;;;;28.40;21.05;;;;;;;2.47;100.00;96930.16;5048627;28;20061;-60
2022/03/07 11:22:54;;;;;;;28.25;20.42;;;;;;;2.34;100.00;96929.97;5050250;28;20088;-63